sensor_id;sensor_type;location;lat;lon;timestamp;pressure;altitude;pressure_sealevel;temperature;humidity
56825;BME280;42705;50.326;18.772;2023-05-09T00:03:00;99501.51;;;6.09;56.76
56825;BME280;42705;50.326;18.772;2023-05-09T00:08:22;99498.86;;;6.07;56.91
56825;BME280;42705;50.326;18.772;2023-05-09T00:13:44;99498.05;;;6.09;56.89
56825;BME280;42705;50.326;18.772;2023-05-09T00:19:06;99495.13;;;6.15;57.27
56825;BME280;42705;50.326;18.772;2023-05-09T00:24:28;99490.08;;;6.18;57.34
56825;BME280;42705;50.326;18.772;2023-05-09T00:29:50;99486.32;;;6.17;57.42
56825;BME280;42705;50.326;18.772;2023-05-09T00:35:12;99483.16;;;6.15;57.30
56825;BME280;42705;50.326;18.772;2023-05-09T00:40:34;99476.91;;;6.08;57.34
56825;BME280;42705;50.326;18.772;2023-05-09T00:45:56;99473.95;;;6.02;57.48
56825;BME280;42705;50.326;18.772;2023-05-09T00:51:19;99467.25;;;5.94;57.59
56825;BME280;42705;50.326;18.772;2023-05-09T00:56:41;99461.71;;;5.88;57.64
56825;BME280;42705;50.326;18.772;2023-05-09T01:02:03;99458.09;;;5.81;57.84
56825;BME280;42705;50.326;18.772;2023-05-09T01:07:51;99462.61;;;5.75;57.85
56825;BME280;42705;50.326;18.772;2023-05-09T01:13:36;99460.86;;;5.69;57.95
56825;BME280;42705;50.326;18.772;2023-05-09T01:30:18;99442.61;;;5.72;58.49
56825;BME280;42705;50.326;18.772;2023-05-09T01:35:41;99447.84;;;5.69;58.71
56825;BME280;42705;50.326;18.772;2023-05-09T01:41:05;99446.44;;;5.62;58.73
56825;BME280;42705;50.326;18.772;2023-05-09T01:46:32;99440.86;;;5.57;58.91
56825;BME280;42705;50.326;18.772;2023-05-09T01:51:55;99439.55;;;5.49;58.74
56825;BME280;42705;50.326;18.772;2023-05-09T01:57:18;99435.08;;;5.42;58.96
56825;BME280;42705;50.326;18.772;2023-05-09T02:02:42;99433.80;;;5.37;58.93
56825;BME280;42705;50.326;18.772;2023-05-09T02:08:04;99430.33;;;5.40;59.12
56825;BME280;42705;50.326;18.772;2023-05-09T02:13:28;99432.68;;;5.45;59.33
56825;BME280;42705;50.326;18.772;2023-05-09T02:18:49;99433.79;;;5.43;59.35
56825;BME280;42705;50.326;18.772;2023-05-09T02:24:12;99431.20;;;5.40;59.43
56825;BME280;42705;50.326;18.772;2023-05-09T02:29:47;99432.11;;;5.36;59.52
56825;BME280;42705;50.326;18.772;2023-05-09T02:35:10;99423.72;;;5.31;59.63
56825;BME280;42705;50.326;18.772;2023-05-09T02:40:34;99416.45;;;5.24;59.71
56825;BME280;42705;50.326;18.772;2023-05-09T02:45:57;99416.27;;;5.15;59.90
56825;BME280;42705;50.326;18.772;2023-05-09T02:51:18;99418.25;;;5.13;60.02
56825;BME280;42705;50.326;18.772;2023-05-09T02:56:40;99419.48;;;5.16;60.21
56825;BME280;42705;50.326;18.772;2023-05-09T03:02:02;99428.29;;;5.13;60.36
56825;BME280;42705;50.326;18.772;2023-05-09T03:07:24;99429.99;;;5.11;60.63
56825;BME280;42705;50.326;18.772;2023-05-09T03:12:46;99421.68;;;5.07;60.57
56825;BME280;42705;50.326;18.772;2023-05-09T03:18:08;99416.07;;;5.02;60.79
56825;BME280;42705;50.326;18.772;2023-05-09T03:23:30;99411.05;;;4.95;60.99
56825;BME280;42705;50.326;18.772;2023-05-09T03:28:52;99416.41;;;4.99;61.15
56825;BME280;42705;50.326;18.772;2023-05-09T03:34:14;99416.09;;;5.04;61.19
56825;BME280;42705;50.326;18.772;2023-05-09T03:39:36;99415.33;;;5.09;61.28
56825;BME280;42705;50.326;18.772;2023-05-09T03:44:58;99416.09;;;5.11;61.16
56825;BME280;42705;50.326;18.772;2023-05-09T03:50:20;99417.04;;;5.10;61.36
56825;BME280;42705;50.326;18.772;2023-05-09T03:55:43;99421.23;;;5.06;61.21
56825;BME280;42705;50.326;18.772;2023-05-09T04:01:06;99419.65;;;5.09;61.55
56825;BME280;42705;50.326;18.772;2023-05-09T04:06:29;99425.25;;;5.15;61.38
56825;BME280;42705;50.326;18.772;2023-05-09T04:11:52;99423.11;;;5.19;61.66
56825;BME280;42705;50.326;18.772;2023-05-09T04:17:15;99427.67;;;5.22;61.74
56825;BME280;42705;50.326;18.772;2023-05-09T04:22:37;99429.79;;;5.24;61.65
56825;BME280;42705;50.326;18.772;2023-05-09T04:27:59;99423.39;;;5.27;61.82
56825;BME280;42705;50.326;18.772;2023-05-09T04:33:21;99419.77;;;5.33;61.87
56825;BME280;42705;50.326;18.772;2023-05-09T04:38:45;99412.73;;;5.48;61.83
56825;BME280;42705;50.326;18.772;2023-05-09T04:44:09;99409.80;;;5.64;61.93
56825;BME280;42705;50.326;18.772;2023-05-09T04:49:31;99406.08;;;5.75;61.85
56825;BME280;42705;50.326;18.772;2023-05-09T04:54:53;99405.92;;;5.81;62.01
56825;BME280;42705;50.326;18.772;2023-05-09T05:00:16;99411.75;;;5.91;61.88
56825;BME280;42705;50.326;18.772;2023-05-09T05:05:40;99410.84;;;5.99;61.95
56825;BME280;42705;50.326;18.772;2023-05-09T05:11:03;99408.80;;;6.07;61.85
56825;BME280;42705;50.326;18.772;2023-05-09T05:16:25;99410.71;;;6.23;61.83
56825;BME280;42705;50.326;18.772;2023-05-09T05:21:47;99413.38;;;6.40;61.96
56825;BME280;42705;50.326;18.772;2023-05-09T05:27:09;99406.13;;;6.57;62.04
56825;BME280;42705;50.326;18.772;2023-05-09T05:32:32;99401.50;;;6.71;61.81
56825;BME280;42705;50.326;18.772;2023-05-09T05:37:54;99396.42;;;6.86;61.80
56825;BME280;42705;50.326;18.772;2023-05-09T05:43:16;99392.58;;;7.01;61.60
56825;BME280;42705;50.326;18.772;2023-05-09T05:48:39;99389.54;;;7.16;61.43
56825;BME280;42705;50.326;18.772;2023-05-09T05:54:01;99382.77;;;7.33;61.06
56825;BME280;42705;50.326;18.772;2023-05-09T05:59:24;99379.61;;;7.50;60.81
56825;BME280;42705;50.326;18.772;2023-05-09T06:04:46;99375.30;;;7.69;60.59
56825;BME280;42705;50.326;18.772;2023-05-09T06:10:08;99372.16;;;7.91;60.15
56825;BME280;42705;50.326;18.772;2023-05-09T06:15:30;99377.46;;;8.11;59.80
56825;BME280;42705;50.326;18.772;2023-05-09T06:20:52;99373.55;;;8.28;59.51
56825;BME280;42705;50.326;18.772;2023-05-09T06:26:14;99365.98;;;8.42;59.25
56825;BME280;42705;50.326;18.772;2023-05-09T06:31:36;99361.69;;;8.55;58.92
56825;BME280;42705;50.326;18.772;2023-05-09T06:36:59;99348.71;;;8.66;58.56
56825;BME280;42705;50.326;18.772;2023-05-09T06:42:21;99350.44;;;8.77;58.18
56825;BME280;42705;50.326;18.772;2023-05-09T06:47:44;99347.89;;;8.91;57.93
56825;BME280;42705;50.326;18.772;2023-05-09T06:53:05;99335.36;;;9.06;57.66
56825;BME280;42705;50.326;18.772;2023-05-09T06:58:28;99329.19;;;9.20;57.32
56825;BME280;42705;50.326;18.772;2023-05-09T07:03:49;99324.25;;;9.33;57.16
56825;BME280;42705;50.326;18.772;2023-05-09T07:09:12;99318.05;;;9.46;56.56
56825;BME280;42705;50.326;18.772;2023-05-09T07:14:37;99319.28;;;9.61;56.09
56825;BME280;42705;50.326;18.772;2023-05-09T07:19:59;99323.03;;;9.74;55.85
56825;BME280;42705;50.326;18.772;2023-05-09T07:25:24;99306.42;;;9.89;55.26
56825;BME280;42705;50.326;18.772;2023-05-09T07:30:46;99302.23;;;10.02;54.23
56825;BME280;42705;50.326;18.772;2023-05-09T07:36:08;99301.79;;;10.16;53.56
56825;BME280;42705;50.326;18.772;2023-05-09T07:41:34;99296.39;;;10.30;52.83
56825;BME280;42705;50.326;18.772;2023-05-09T07:46:56;99294.54;;;10.45;52.70
56825;BME280;42705;50.326;18.772;2023-05-09T07:52:19;99287.85;;;10.59;52.00
56825;BME280;42705;50.326;18.772;2023-05-09T07:57:41;99283.69;;;10.72;51.29
56825;BME280;42705;50.326;18.772;2023-05-09T08:03:03;99283.19;;;10.83;50.91
56825;BME280;42705;50.326;18.772;2023-05-09T08:08:26;99276.16;;;10.93;50.11
56825;BME280;42705;50.326;18.772;2023-05-09T08:13:48;99273.55;;;11.02;49.98
56825;BME280;42705;50.326;18.772;2023-05-09T08:19:10;99272.16;;;11.10;49.61
56825;BME280;42705;50.326;18.772;2023-05-09T08:24:32;99264.79;;;11.22;49.59
56825;BME280;42705;50.326;18.772;2023-05-09T08:29:54;99262.55;;;11.32;49.19
56825;BME280;42705;50.326;18.772;2023-05-09T08:35:16;99259.58;;;11.41;48.80
56825;BME280;42705;50.326;18.772;2023-05-09T08:40:39;99259.99;;;11.51;48.37
56825;BME280;42705;50.326;18.772;2023-05-09T08:46:07;99242.43;;;11.65;48.28
56825;BME280;42705;50.326;18.772;2023-05-09T08:51:30;99236.56;;;11.78;47.95
56825;BME280;42705;50.326;18.772;2023-05-09T08:56:52;99235.02;;;11.88;47.63
56825;BME280;42705;50.326;18.772;2023-05-09T09:02:14;99232.42;;;11.99;47.27
56825;BME280;42705;50.326;18.772;2023-05-09T09:07:39;99227.82;;;12.10;47.25
56825;BME280;42705;50.326;18.772;2023-05-09T09:13:02;99234.95;;;12.21;46.69
56825;BME280;42705;50.326;18.772;2023-05-09T09:18:29;99236.68;;;12.32;46.69
56825;BME280;42705;50.326;18.772;2023-05-09T09:23:51;99230.50;;;12.44;46.70
56825;BME280;42705;50.326;18.772;2023-05-09T09:29:17;99235.70;;;12.61;46.99
56825;BME280;42705;50.326;18.772;2023-05-09T09:34:39;99234.73;;;12.77;46.68
56825;BME280;42705;50.326;18.772;2023-05-09T09:40:02;99230.95;;;12.90;46.40
56825;BME280;42705;50.326;18.772;2023-05-09T09:45:24;99222.02;;;13.05;46.30
56825;BME280;42705;50.326;18.772;2023-05-09T09:50:48;99219.77;;;13.15;46.09
56825;BME280;42705;50.326;18.772;2023-05-09T09:56:10;99216.95;;;13.31;45.90
56825;BME280;42705;50.326;18.772;2023-05-09T10:01:32;99207.40;;;13.46;45.79
56825;BME280;42705;50.326;18.772;2023-05-09T10:06:56;99210.48;;;13.55;45.18
56825;BME280;42705;50.326;18.772;2023-05-09T10:12:18;99201.44;;;13.69;45.00
56825;BME280;42705;50.326;18.772;2023-05-09T10:17:41;99200.55;;;13.92;45.08
56825;BME280;42705;50.326;18.772;2023-05-09T10:23:05;99193.92;;;14.16;45.01
56825;BME280;42705;50.326;18.772;2023-05-09T10:28:31;99191.14;;;14.37;44.31
56825;BME280;42705;50.326;18.772;2023-05-09T10:33:54;99187.30;;;14.46;43.72
56825;BME280;42705;50.326;18.772;2023-05-09T10:39:17;99179.52;;;14.67;43.44
56825;BME280;42705;50.326;18.772;2023-05-09T10:44:39;99168.17;;;14.84;43.09
56825;BME280;42705;50.326;18.772;2023-05-09T10:50:02;99171.23;;;15.09;42.41
56825;BME280;42705;50.326;18.772;2023-05-09T10:55:35;99169.86;;;15.21;42.15
56825;BME280;42705;50.326;18.772;2023-05-09T11:00:57;99159.56;;;15.35;41.67
56825;BME280;42705;50.326;18.772;2023-05-09T11:12:10;99150.85;;;15.58;40.66
56825;BME280;42705;50.326;18.772;2023-05-09T11:17:37;99150.30;;;15.66;40.23
56825;BME280;42705;50.326;18.772;2023-05-09T11:23:00;99145.50;;;15.84;40.06
56825;BME280;42705;50.326;18.772;2023-05-09T11:28:26;99138.98;;;16.05;39.69
56825;BME280;42705;50.326;18.772;2023-05-09T11:34:00;99128.68;;;16.30;39.32
56825;BME280;42705;50.326;18.772;2023-05-09T11:39:24;99121.08;;;16.64;38.73
56825;BME280;42705;50.326;18.772;2023-05-09T11:44:47;99108.46;;;16.88;38.51
56825;BME280;42705;50.326;18.772;2023-05-09T11:50:11;99094.55;;;17.19;38.03
56825;BME280;42705;50.326;18.772;2023-05-09T11:55:36;99087.35;;;17.58;37.13
56825;BME280;42705;50.326;18.772;2023-05-09T12:00:59;99083.15;;;17.83;36.41
56825;BME280;42705;50.326;18.772;2023-05-09T12:06:21;99079.48;;;17.94;36.46
56825;BME280;42705;50.326;18.772;2023-05-09T12:11:47;99070.80;;;18.23;36.31
56825;BME280;42705;50.326;18.772;2023-05-09T12:17:09;99064.56;;;18.31;35.82
56825;BME280;42705;50.326;18.772;2023-05-09T12:22:32;99061.89;;;18.46;35.98
56825;BME280;42705;50.326;18.772;2023-05-09T12:27:54;99058.23;;;18.64;35.26
56825;BME280;42705;50.326;18.772;2023-05-09T12:33:17;99041.59;;;18.81;34.61
56825;BME280;42705;50.326;18.772;2023-05-09T12:38:39;99042.95;;;18.80;34.32
56825;BME280;42705;50.326;18.772;2023-05-09T12:44:02;99040.03;;;18.91;34.68
56825;BME280;42705;50.326;18.772;2023-05-09T12:49:25;99030.40;;;19.06;34.72
56825;BME280;42705;50.326;18.772;2023-05-09T12:54:47;99020.17;;;19.10;34.19
56825;BME280;42705;50.326;18.772;2023-05-09T13:00:10;99021.11;;;19.31;34.22
56825;BME280;42705;50.326;18.772;2023-05-09T13:05:32;99010.19;;;19.68;33.80
56825;BME280;42705;50.326;18.772;2023-05-09T13:10:55;99005.18;;;19.94;33.13
56825;BME280;42705;50.326;18.772;2023-05-09T13:16:18;99002.69;;;20.33;32.77
56825;BME280;42705;50.326;18.772;2023-05-09T13:21:40;98996.18;;;22.09;31.76
56825;BME280;42705;50.326;18.772;2023-05-09T13:27:01;98984.80;;;24.10;30.73
56825;BME280;42705;50.326;18.772;2023-05-09T13:32:24;98982.59;;;24.31;29.39
56825;BME280;42705;50.326;18.772;2023-05-09T13:37:46;98975.45;;;26.30;27.83
56825;BME280;42705;50.326;18.772;2023-05-09T13:43:08;98963.88;;;28.61;26.80
56825;BME280;42705;50.326;18.772;2023-05-09T13:48:30;98954.45;;;30.33;24.67
56825;BME280;42705;50.326;18.772;2023-05-09T13:53:51;98953.90;;;31.28;23.82
56825;BME280;42705;50.326;18.772;2023-05-09T13:59:13;98944.77;;;30.96;22.65
56825;BME280;42705;50.326;18.772;2023-05-09T14:04:36;98937.23;;;30.59;22.35
56825;BME280;42705;50.326;18.772;2023-05-09T14:09:58;98925.83;;;30.37;21.88
56825;BME280;42705;50.326;18.772;2023-05-09T14:15:21;98925.41;;;29.27;22.53
56825;BME280;42705;50.326;18.772;2023-05-09T14:20:43;98913.41;;;29.79;21.93
56825;BME280;42705;50.326;18.772;2023-05-09T14:26:05;98909.71;;;30.19;21.76
56825;BME280;42705;50.326;18.772;2023-05-09T14:31:27;98908.15;;;29.60;21.81
56825;BME280;42705;50.326;18.772;2023-05-09T14:36:49;98905.38;;;29.41;21.92
56825;BME280;42705;50.326;18.772;2023-05-09T14:42:11;98901.63;;;31.27;21.51
56825;BME280;42705;50.326;18.772;2023-05-09T14:47:34;98898.33;;;32.43;20.20
56825;BME280;42705;50.326;18.772;2023-05-09T14:52:56;98892.64;;;32.34;19.87
56825;BME280;42705;50.326;18.772;2023-05-09T14:58:19;98882.50;;;31.19;19.93
56825;BME280;42705;50.326;18.772;2023-05-09T15:03:41;98878.50;;;32.00;19.98
56825;BME280;42705;50.326;18.772;2023-05-09T15:09:03;98871.15;;;33.14;19.57
56825;BME280;42705;50.326;18.772;2023-05-09T15:14:25;98859.10;;;34.09;18.91
56825;BME280;42705;50.326;18.772;2023-05-09T15:19:47;98848.30;;;34.47;18.24
56825;BME280;42705;50.326;18.772;2023-05-09T15:25:09;98838.96;;;34.70;18.14
56825;BME280;42705;50.326;18.772;2023-05-09T15:30:32;98831.61;;;34.56;17.50
56825;BME280;42705;50.326;18.772;2023-05-09T15:35:58;98829.91;;;33.62;17.50
56825;BME280;42705;50.326;18.772;2023-05-09T15:41:20;98831.20;;;32.99;17.73
56825;BME280;42705;50.326;18.772;2023-05-09T15:46:42;98822.95;;;33.00;17.63
56825;BME280;42705;50.326;18.772;2023-05-09T15:52:05;98823.17;;;33.09;17.51
56825;BME280;42705;50.326;18.772;2023-05-09T15:57:28;98818.27;;;33.02;17.29
56825;BME280;42705;50.326;18.772;2023-05-09T16:02:50;98816.14;;;32.63;17.38
56825;BME280;42705;50.326;18.772;2023-05-09T16:08:12;98806.69;;;32.70;17.44
56825;BME280;42705;50.326;18.772;2023-05-09T16:13:34;98799.58;;;32.60;17.31
56825;BME280;42705;50.326;18.772;2023-05-09T16:18:56;98795.08;;;32.09;17.13
56825;BME280;42705;50.326;18.772;2023-05-09T16:24:18;98793.40;;;31.75;17.36
56825;BME280;42705;50.326;18.772;2023-05-09T16:29:40;98786.13;;;31.55;17.59
56825;BME280;42705;50.326;18.772;2023-05-09T16:35:02;98783.55;;;31.19;17.81
56825;BME280;42705;50.326;18.772;2023-05-09T16:40:24;98780.20;;;30.72;17.86
56825;BME280;42705;50.326;18.772;2023-05-09T16:45:47;98776.55;;;29.78;18.09
56825;BME280;42705;50.326;18.772;2023-05-09T16:51:08;98770.85;;;28.35;18.39
56825;BME280;42705;50.326;18.772;2023-05-09T16:56:31;98761.30;;;27.16;19.27
56825;BME280;42705;50.326;18.772;2023-05-09T17:01:53;98761.14;;;26.07;19.80
56825;BME280;42705;50.326;18.772;2023-05-09T17:07:18;98755.92;;;25.01;20.31
56825;BME280;42705;50.326;18.772;2023-05-09T17:12:40;98752.70;;;24.17;21.09
56825;BME280;42705;50.326;18.772;2023-05-09T17:18:03;98756.04;;;23.61;21.65
56825;BME280;42705;50.326;18.772;2023-05-09T17:23:26;98752.27;;;23.28;21.99
56825;BME280;42705;50.326;18.772;2023-05-09T17:28:49;98750.33;;;23.07;22.39
56825;BME280;42705;50.326;18.772;2023-05-09T17:34:11;98750.23;;;22.75;22.62
56825;BME280;42705;50.326;18.772;2023-05-09T17:39:33;98747.10;;;22.42;22.88
56825;BME280;42705;50.326;18.772;2023-05-09T17:44:55;98753.47;;;21.93;23.21
56825;BME280;42705;50.326;18.772;2023-05-09T17:50:18;98753.95;;;21.31;23.70
56825;BME280;42705;50.326;18.772;2023-05-09T17:55:41;98752.86;;;20.68;24.31
56825;BME280;42705;50.326;18.772;2023-05-09T18:01:03;98752.63;;;20.00;24.90
56825;BME280;42705;50.326;18.772;2023-05-09T18:06:26;98756.80;;;19.22;25.43
56825;BME280;42705;50.326;18.772;2023-05-09T18:11:48;98751.52;;;18.45;26.14
56825;BME280;42705;50.326;18.772;2023-05-09T18:17:10;98752.30;;;17.76;26.96
56825;BME280;42705;50.326;18.772;2023-05-09T18:22:32;98750.04;;;17.09;27.63
56825;BME280;42705;50.326;18.772;2023-05-09T18:27:55;98753.55;;;16.56;28.24
56825;BME280;42705;50.326;18.772;2023-05-09T18:33:18;98747.89;;;16.18;28.81
56825;BME280;42705;50.326;18.772;2023-05-09T18:38:43;98755.33;;;15.83;29.44
56825;BME280;42705;50.326;18.772;2023-05-09T18:44:06;98764.92;;;15.52;29.85
56825;BME280;42705;50.326;18.772;2023-05-09T18:49:28;98766.45;;;15.23;30.21
56825;BME280;42705;50.326;18.772;2023-05-09T18:54:51;98769.38;;;14.93;30.67
56825;BME280;42705;50.326;18.772;2023-05-09T19:00:14;98769.83;;;14.68;31.29
56825;BME280;42705;50.326;18.772;2023-05-09T19:05:36;98763.42;;;14.43;31.56
56825;BME280;42705;50.326;18.772;2023-05-09T19:10:58;98759.00;;;14.15;31.88
56825;BME280;42705;50.326;18.772;2023-05-09T19:16:22;98759.61;;;13.93;32.44
56825;BME280;42705;50.326;18.772;2023-05-09T19:21:47;98760.02;;;13.76;32.90
56825;BME280;42705;50.326;18.772;2023-05-09T19:27:10;98753.31;;;13.59;33.15
56825;BME280;42705;50.326;18.772;2023-05-09T19:32:33;98747.77;;;13.42;33.45
56825;BME280;42705;50.326;18.772;2023-05-09T19:37:55;98747.92;;;13.29;33.83
56825;BME280;42705;50.326;18.772;2023-05-09T19:43:18;98746.60;;;13.15;34.28
56825;BME280;42705;50.326;18.772;2023-05-09T19:48:40;98744.02;;;13.04;34.54
56825;BME280;42705;50.326;18.772;2023-05-09T19:54:03;98749.11;;;12.90;34.66
56825;BME280;42705;50.326;18.772;2023-05-09T19:59:27;98749.35;;;12.76;35.17
56825;BME280;42705;50.326;18.772;2023-05-09T20:04:57;98751.80;;;12.64;35.51
56825;BME280;42705;50.326;18.772;2023-05-09T20:10:24;98745.31;;;12.52;35.51
56825;BME280;42705;50.326;18.772;2023-05-09T20:15:58;98745.24;;;12.41;35.76
56825;BME280;42705;50.326;18.772;2023-05-09T20:21:48;98740.59;;;12.29;36.12
56825;BME280;42705;50.326;18.772;2023-05-09T20:27:11;98740.88;;;12.20;36.46
56825;BME280;42705;50.326;18.772;2023-05-09T20:32:33;98736.79;;;12.09;36.57
56825;BME280;42705;50.326;18.772;2023-05-09T20:37:55;98740.65;;;12.00;37.04
56825;BME280;42705;50.326;18.772;2023-05-09T20:43:19;98740.32;;;11.89;37.01
56825;BME280;42705;50.326;18.772;2023-05-09T20:48:41;98740.37;;;11.81;37.63
56825;BME280;42705;50.326;18.772;2023-05-09T20:54:04;98737.02;;;11.72;37.88
56825;BME280;42705;50.326;18.772;2023-05-09T20:59:27;98738.76;;;11.62;38.06
56825;BME280;42705;50.326;18.772;2023-05-09T21:04:49;98740.90;;;11.56;38.11
56825;BME280;42705;50.326;18.772;2023-05-09T21:10:11;98729.98;;;11.51;38.13
56825;BME280;42705;50.326;18.772;2023-05-09T21:15:33;98733.75;;;11.46;38.41
56825;BME280;42705;50.326;18.772;2023-05-09T21:20:55;98733.69;;;11.41;38.55
56825;BME280;42705;50.326;18.772;2023-05-09T21:26:17;98732.03;;;11.36;38.92
56825;BME280;42705;50.326;18.772;2023-05-09T21:31:39;98727.99;;;11.30;39.19
56825;BME280;42705;50.326;18.772;2023-05-09T21:37:01;98725.73;;;11.26;39.21
56825;BME280;42705;50.326;18.772;2023-05-09T21:42:23;98726.73;;;11.23;39.07
56825;BME280;42705;50.326;18.772;2023-05-09T21:47:45;98729.27;;;11.18;39.39
56825;BME280;42705;50.326;18.772;2023-05-09T21:53:06;98725.23;;;11.10;39.47
56825;BME280;42705;50.326;18.772;2023-05-09T21:58:28;98728.59;;;11.04;39.59
56825;BME280;42705;50.326;18.772;2023-05-09T22:03:51;98731.39;;;10.97;39.87
56825;BME280;42705;50.326;18.772;2023-05-09T22:09:13;98735.50;;;10.91;39.93
56825;BME280;42705;50.326;18.772;2023-05-09T22:14:35;98735.05;;;10.83;40.15
56825;BME280;42705;50.326;18.772;2023-05-09T22:19:57;98732.92;;;10.80;40.71
56825;BME280;42705;50.326;18.772;2023-05-09T22:25:19;98725.42;;;10.76;40.36
56825;BME280;42705;50.326;18.772;2023-05-09T22:30:41;98724.70;;;10.70;40.83
56825;BME280;42705;50.326;18.772;2023-05-09T22:36:03;98719.79;;;10.64;40.85
56825;BME280;42705;50.326;18.772;2023-05-09T22:41:26;98716.73;;;10.57;41.25
56825;BME280;42705;50.326;18.772;2023-05-09T22:46:48;98718.61;;;10.51;41.29
56825;BME280;42705;50.326;18.772;2023-05-09T22:52:10;98714.80;;;10.47;41.71
56825;BME280;42705;50.326;18.772;2023-05-09T22:57:32;98717.17;;;10.44;42.02
56825;BME280;42705;50.326;18.772;2023-05-09T23:02:54;98713.27;;;10.40;41.93
56825;BME280;42705;50.326;18.772;2023-05-09T23:08:16;98715.79;;;10.37;42.12
56825;BME280;42705;50.326;18.772;2023-05-09T23:13:37;98709.80;;;10.34;42.48
56825;BME280;42705;50.326;18.772;2023-05-09T23:18:59;98708.80;;;10.31;42.39
56825;BME280;42705;50.326;18.772;2023-05-09T23:24:21;98704.44;;;10.27;42.35
56825;BME280;42705;50.326;18.772;2023-05-09T23:29:43;98702.95;;;10.22;42.81
56825;BME280;42705;50.326;18.772;2023-05-09T23:35:05;98701.44;;;10.15;42.68
56825;BME280;42705;50.326;18.772;2023-05-09T23:40:29;98702.18;;;10.08;42.98
56825;BME280;42705;50.326;18.772;2023-05-09T23:45:50;98698.02;;;10.02;43.16
56825;BME280;42705;50.326;18.772;2023-05-09T23:51:13;98693.66;;;9.95;43.16
56825;BME280;42705;50.326;18.772;2023-05-09T23:56:35;98687.45;;;9.88;43.38
